X  Fechar Dados meteorológicos de METAR da aviação     EHDL Deelen Air Base
Temperatura
19°C Temperatura
11°C Ponto de orvalho
60% Umidade



Vento
13 KM/H
8 MPH
4 M/S
7 NÓS



360°
N
Condições atuais

Muito nublado Muito nublado
Pressão 1018.96 (hPa) - 30.09 (inHg)
Visibilidade 6 (milha) - 9.7 (km)
Aeroporto
Código do aeroporto EHDL

Localização: Deelen Air Base
Distância: 14 (km)

Metar:
EHDL 191225Z AUTO 36007KT 310V060 9999 BKN038 BKN043 OVC052 19/11 Q1019 BLU

Hora: 19-06-2024 14:25 CEST